<?xml version="1.0" encoding="UTF-8" standalone="no" ?>
<gpx xmlns="http://www.topografix.com/GPX/1/1" xmlns:xsi="http://www.w3.org/2001/XMLSchema-instance" xsi:schemaLocation="http://www.topografix.com/GPX/1/1 http://www.topografix.com/GPX/1/1/gpx.xsd" version="1.1" creator="VisuGPX - https://www.visugpx.com">
  <metadata>
    <name>Course à pied le midi</name>
  </metadata>
  <trk>
    <name><![CDATA[Course à pied le midi_1]]></name>
    <trkseg>
      <trkpt lat="46.08895" lon="6.75829">
        <ele>1749.5</ele>
        <time>2023-08-13T09:04:40Z</time>
      </trkpt>
      <trkpt lat="46.08882" lon="6.75838">
        <ele>1741.2</ele>
        <time>2023-08-13T09:05:10Z</time>
      </trkpt>
      <trkpt lat="46.08869" lon="6.75838">
        <ele>1733.6</ele>
        <time>2023-08-13T09:05:48Z</time>
      </trkpt>
      <trkpt lat="46.08851" lon="6.75832">
        <ele>1723.4</ele>
        <time>2023-08-13T09:06:10Z</time>
      </trkpt>
      <trkpt lat="46.08834" lon="6.7583">
        <ele>1713.7</ele>
        <time>2023-08-13T09:06:40Z</time>
      </trkpt>
      <trkpt lat="46.08832" lon="6.7583">
        <ele>1712.3</ele>
        <time>2023-08-13T09:06:42Z</time>
      </trkpt>
      <trkpt lat="46.08816" lon="6.75817">
        <ele>1702.3</ele>
        <time>2023-08-13T09:07:23Z</time>
      </trkpt>
      <trkpt lat="46.08798" lon="6.75813">
        <ele>1692.8</ele>
        <time>2023-08-13T09:07:49Z</time>
      </trkpt>
      <trkpt lat="46.08783" lon="6.758">
        <ele>1683.2</ele>
        <time>2023-08-13T09:08:23Z</time>
      </trkpt>
      <trkpt lat="46.08768" lon="6.75786">
        <ele>1673.2</ele>
        <time>2023-08-13T09:09:01Z</time>
      </trkpt>
      <trkpt lat="46.08758" lon="6.7577">
        <ele>1665.1</ele>
        <time>2023-08-13T09:09:58Z</time>
      </trkpt>
      <trkpt lat="46.08745" lon="6.75753">
        <ele>1656.1</ele>
        <time>2023-08-13T09:10:33Z</time>
      </trkpt>
      <trkpt lat="46.08739" lon="6.7573">
        <ele>1647.6</ele>
        <time>2023-08-13T09:11:11Z</time>
      </trkpt>
      <trkpt lat="46.08729" lon="6.7571">
        <ele>1638.5</ele>
        <time>2023-08-13T09:12:03Z</time>
      </trkpt>
      <trkpt lat="46.08721" lon="6.7569">
        <ele>1630.7</ele>
        <time>2023-08-13T09:12:47Z</time>
      </trkpt>
      <trkpt lat="46.08708" lon="6.75673">
        <ele>1622.1</ele>
        <time>2023-08-13T09:13:17Z</time>
      </trkpt>
      <trkpt lat="46.08703" lon="6.7567">
        <ele>1619.4</ele>
        <time>2023-08-13T09:13:56Z</time>
      </trkpt>
      <trkpt lat="46.08692" lon="6.75651">
        <ele>1611.2</ele>
        <time>2023-08-13T09:14:30Z</time>
      </trkpt>
      <trkpt lat="46.08675" lon="6.75639">
        <ele>1601.7</ele>
        <time>2023-08-13T09:14:48Z</time>
      </trkpt>
      <trkpt lat="46.0866" lon="6.75637">
        <ele>1594.4</ele>
        <time>2023-08-13T09:15:16Z</time>
      </trkpt>
      <trkpt lat="46.08657" lon="6.75634">
        <ele>1592.6</ele>
        <time>2023-08-13T09:15:50Z</time>
      </trkpt>
      <trkpt lat="46.08655" lon="6.75633">
        <ele>1591.7</ele>
        <time>2023-08-13T09:16:07Z</time>
      </trkpt>
      <trkpt lat="46.08639" lon="6.75624">
        <ele>1583.3</ele>
        <time>2023-08-13T09:16:41Z</time>
      </trkpt>
      <trkpt lat="46.08627" lon="6.75611">
        <ele>1575.8</ele>
        <time>2023-08-13T09:17:12Z</time>
      </trkpt>
      <trkpt lat="46.08612" lon="6.75597">
        <ele>1566.8</ele>
        <time>2023-08-13T09:17:32Z</time>
      </trkpt>
      <trkpt lat="46.08597" lon="6.75582">
        <ele>1557.8</ele>
        <time>2023-08-13T09:17:50Z</time>
      </trkpt>
      <trkpt lat="46.08584" lon="6.75563">
        <ele>1548.7</ele>
        <time>2023-08-13T09:18:08Z</time>
      </trkpt>
      <trkpt lat="46.08579" lon="6.75558">
        <ele>1540.8</ele>
        <time>2023-08-13T09:18:22Z</time>
      </trkpt>
      <trkpt lat="46.08579" lon="6.75557">
        <ele>1536.1</ele>
        <time>2023-08-13T09:18:35Z</time>
      </trkpt>
      <trkpt lat="46.08567" lon="6.75548">
        <ele>1525.5</ele>
        <time>2023-08-13T09:18:51Z</time>
      </trkpt>
      <trkpt lat="46.0855" lon="6.75554">
        <ele>1515.6</ele>
        <time>2023-08-13T09:19:11Z</time>
      </trkpt>
      <trkpt lat="46.0855" lon="6.75564">
        <ele>1517.1</ele>
        <time>2023-08-13T09:19:52Z</time>
      </trkpt>
      <trkpt lat="46.08552" lon="6.75591">
        <ele>1520.6</ele>
        <time>2023-08-13T09:20:22Z</time>
      </trkpt>
      <trkpt lat="46.08548" lon="6.75617">
        <ele>1523.7</ele>
        <time>2023-08-13T09:20:43Z</time>
      </trkpt>
      <trkpt lat="46.08546" lon="6.75644">
        <ele>1527</ele>
        <time>2023-08-13T09:21:03Z</time>
      </trkpt>
      <trkpt lat="46.0854" lon="6.75668">
        <ele>1530.3</ele>
        <time>2023-08-13T09:21:24Z</time>
      </trkpt>
      <trkpt lat="46.08532" lon="6.75691">
        <ele>1533.6</ele>
        <time>2023-08-13T09:21:40Z</time>
      </trkpt>
      <trkpt lat="46.08524" lon="6.75716">
        <ele>1536.9</ele>
        <time>2023-08-13T09:21:57Z</time>
      </trkpt>
      <trkpt lat="46.0852" lon="6.75741">
        <ele>1540.2</ele>
        <time>2023-08-13T09:22:15Z</time>
      </trkpt>
      <trkpt lat="46.08515" lon="6.75767">
        <ele>1543.6</ele>
        <time>2023-08-13T09:22:32Z</time>
      </trkpt>
      <trkpt lat="46.08513" lon="6.75794">
        <ele>1547.2</ele>
        <time>2023-08-13T09:22:50Z</time>
      </trkpt>
      <trkpt lat="46.08509" lon="6.7582">
        <ele>1550.3</ele>
        <time>2023-08-13T09:23:06Z</time>
      </trkpt>
      <trkpt lat="46.08504" lon="6.75845">
        <ele>1553.5</ele>
        <time>2023-08-13T09:23:23Z</time>
      </trkpt>
      <trkpt lat="46.08501" lon="6.7587">
        <ele>1557.2</ele>
        <time>2023-08-13T09:23:42Z</time>
      </trkpt>
      <trkpt lat="46.08498" lon="6.75895">
        <ele>1560.2</ele>
        <time>2023-08-13T09:24:05Z</time>
      </trkpt>
      <trkpt lat="46.08496" lon="6.75922">
        <ele>1563.6</ele>
        <time>2023-08-13T09:24:21Z</time>
      </trkpt>
      <trkpt lat="46.08491" lon="6.75947">
        <ele>1566.8</ele>
        <time>2023-08-13T09:24:37Z</time>
      </trkpt>
      <trkpt lat="46.0849" lon="6.75974">
        <ele>1569.9</ele>
        <time>2023-08-13T09:24:55Z</time>
      </trkpt>
      <trkpt lat="46.08488" lon="6.75999">
        <ele>1573</ele>
        <time>2023-08-13T09:25:15Z</time>
      </trkpt>
      <trkpt lat="46.08488" lon="6.76026">
        <ele>1576.3</ele>
        <time>2023-08-13T09:25:33Z</time>
      </trkpt>
      <trkpt lat="46.08491" lon="6.76047">
        <ele>1578.8</ele>
        <time>2023-08-13T09:26:21Z</time>
      </trkpt>
      <trkpt lat="46.08489" lon="6.76023">
        <ele>1577.2</ele>
        <time>2023-08-13T09:26:49Z</time>
      </trkpt>
      <trkpt lat="46.08488" lon="6.75997">
        <ele>1573.8</ele>
        <time>2023-08-13T09:27:14Z</time>
      </trkpt>
      <trkpt lat="46.08488" lon="6.7597">
        <ele>1570.3</ele>
        <time>2023-08-13T09:27:24Z</time>
      </trkpt>
      <trkpt lat="46.08488" lon="6.75963">
        <ele>1569.5</ele>
        <time>2023-08-13T09:27:26Z</time>
      </trkpt>
      <trkpt lat="46.08493" lon="6.75938">
        <ele>1566.3</ele>
        <time>2023-08-13T09:27:38Z</time>
      </trkpt>
      <trkpt lat="46.08498" lon="6.75913">
        <ele>1562.8</ele>
        <time>2023-08-13T09:27:45Z</time>
      </trkpt>
      <trkpt lat="46.08502" lon="6.75884">
        <ele>1558.9</ele>
        <time>2023-08-13T09:27:52Z</time>
      </trkpt>
      <trkpt lat="46.08506" lon="6.75858">
        <ele>1555.4</ele>
        <time>2023-08-13T09:27:59Z</time>
      </trkpt>
      <trkpt lat="46.08509" lon="6.75829">
        <ele>1551.7</ele>
        <time>2023-08-13T09:28:06Z</time>
      </trkpt>
      <trkpt lat="46.08514" lon="6.75803">
        <ele>1548.5</ele>
        <time>2023-08-13T09:28:12Z</time>
      </trkpt>
      <trkpt lat="46.08514" lon="6.75791">
        <ele>1547</ele>
        <time>2023-08-13T09:28:19Z</time>
      </trkpt>
      <trkpt lat="46.08518" lon="6.75766">
        <ele>1543.8</ele>
        <time>2023-08-13T09:28:34Z</time>
      </trkpt>
      <trkpt lat="46.08522" lon="6.75741">
        <ele>1540.7</ele>
        <time>2023-08-13T09:28:43Z</time>
      </trkpt>
      <trkpt lat="46.08527" lon="6.75715">
        <ele>1537.4</ele>
        <time>2023-08-13T09:28:51Z</time>
      </trkpt>
      <trkpt lat="46.08536" lon="6.75689">
        <ele>1534</ele>
        <time>2023-08-13T09:28:59Z</time>
      </trkpt>
      <trkpt lat="46.08543" lon="6.75664">
        <ele>1530.7</ele>
        <time>2023-08-13T09:29:06Z</time>
      </trkpt>
      <trkpt lat="46.08549" lon="6.75637">
        <ele>1527</ele>
        <time>2023-08-13T09:29:14Z</time>
      </trkpt>
      <trkpt lat="46.08551" lon="6.75611">
        <ele>1524</ele>
        <time>2023-08-13T09:29:22Z</time>
      </trkpt>
      <trkpt lat="46.08543" lon="6.75587">
        <ele>1521</ele>
        <time>2023-08-13T09:29:31Z</time>
      </trkpt>
      <trkpt lat="46.08538" lon="6.75575">
        <ele>1519.3</ele>
        <time>2023-08-13T09:29:39Z</time>
      </trkpt>
      <trkpt lat="46.08553" lon="6.75559">
        <ele>1515.7</ele>
        <time>2023-08-13T09:29:53Z</time>
      </trkpt>
      <trkpt lat="46.08553" lon="6.75555">
        <ele>1515.2</ele>
        <time>2023-08-13T09:30:31Z</time>
      </trkpt>
      <trkpt lat="46.08549" lon="6.75558">
        <ele>1514.4</ele>
        <time>2023-08-13T09:30:35Z</time>
      </trkpt>
      <trkpt lat="46.08532" lon="6.75571">
        <ele>1511.2</ele>
        <time>2023-08-13T09:30:42Z</time>
      </trkpt>
      <trkpt lat="46.08518" lon="6.75589">
        <ele>1508</ele>
        <time>2023-08-13T09:30:49Z</time>
      </trkpt>
      <trkpt lat="46.08506" lon="6.75609">
        <ele>1505</ele>
        <time>2023-08-13T09:30:56Z</time>
      </trkpt>
      <trkpt lat="46.08489" lon="6.75624">
        <ele>1501.9</ele>
        <time>2023-08-13T09:31:04Z</time>
      </trkpt>
      <trkpt lat="46.08474" lon="6.75641">
        <ele>1498.7</ele>
        <time>2023-08-13T09:31:12Z</time>
      </trkpt>
      <trkpt lat="46.0846" lon="6.75658">
        <ele>1495.8</ele>
        <time>2023-08-13T09:31:19Z</time>
      </trkpt>
      <trkpt lat="46.08448" lon="6.7568">
        <ele>1492.8</ele>
        <time>2023-08-13T09:31:27Z</time>
      </trkpt>
      <trkpt lat="46.08435" lon="6.75701">
        <ele>1489.8</ele>
        <time>2023-08-13T09:31:48Z</time>
      </trkpt>
      <trkpt lat="46.08421" lon="6.7572">
        <ele>1486.9</ele>
        <time>2023-08-13T09:31:55Z</time>
      </trkpt>
      <trkpt lat="46.08407" lon="6.75738">
        <ele>1484.1</ele>
        <time>2023-08-13T09:32:00Z</time>
      </trkpt>
      <trkpt lat="46.08393" lon="6.75761">
        <ele>1480.5</ele>
        <time>2023-08-13T09:32:06Z</time>
      </trkpt>
      <trkpt lat="46.08377" lon="6.75776">
        <ele>1477.4</ele>
        <time>2023-08-13T09:32:13Z</time>
      </trkpt>
      <trkpt lat="46.0837" lon="6.75785">
        <ele>1475.9</ele>
        <time>2023-08-13T09:32:18Z</time>
      </trkpt>
      <trkpt lat="46.08356" lon="6.75804">
        <ele>1472.8</ele>
        <time>2023-08-13T09:32:26Z</time>
      </trkpt>
      <trkpt lat="46.08341" lon="6.75821">
        <ele>1469.3</ele>
        <time>2023-08-13T09:32:35Z</time>
      </trkpt>
      <trkpt lat="46.08326" lon="6.75838">
        <ele>1465.3</ele>
        <time>2023-08-13T09:32:43Z</time>
      </trkpt>
      <trkpt lat="46.08314" lon="6.75857">
        <ele>1461.8</ele>
        <time>2023-08-13T09:32:49Z</time>
      </trkpt>
      <trkpt lat="46.08301" lon="6.75877">
        <ele>1458.3</ele>
        <time>2023-08-13T09:32:56Z</time>
      </trkpt>
      <trkpt lat="46.08286" lon="6.75896">
        <ele>1455</ele>
        <time>2023-08-13T09:33:03Z</time>
      </trkpt>
      <trkpt lat="46.08273" lon="6.75916">
        <ele>1451.8</ele>
        <time>2023-08-13T09:33:09Z</time>
      </trkpt>
      <trkpt lat="46.08266" lon="6.75943">
        <ele>1448.3</ele>
        <time>2023-08-13T09:33:16Z</time>
      </trkpt>
      <trkpt lat="46.08255" lon="6.75965">
        <ele>1444.8</ele>
        <time>2023-08-13T09:33:23Z</time>
      </trkpt>
      <trkpt lat="46.08242" lon="6.75987">
        <ele>1441</ele>
        <time>2023-08-13T09:33:30Z</time>
      </trkpt>
      <trkpt lat="46.08228" lon="6.76008">
        <ele>1437.1</ele>
        <time>2023-08-13T09:33:37Z</time>
      </trkpt>
      <trkpt lat="46.08217" lon="6.76029">
        <ele>1433.8</ele>
        <time>2023-08-13T09:33:43Z</time>
      </trkpt>
      <trkpt lat="46.08203" lon="6.76049">
        <ele>1430.3</ele>
        <time>2023-08-13T09:33:50Z</time>
      </trkpt>
      <trkpt lat="46.08195" lon="6.76057">
        <ele>1427.2</ele>
        <time>2023-08-13T09:33:55Z</time>
      </trkpt>
      <trkpt lat="46.08194" lon="6.76054">
        <ele>1428.7</ele>
        <time>2023-08-13T09:33:57Z</time>
      </trkpt>
      <trkpt lat="46.08193" lon="6.76047">
        <ele>1429.5</ele>
        <time>2023-08-13T09:34:01Z</time>
      </trkpt>
      <trkpt lat="46.08186" lon="6.76051">
        <ele>1426.1</ele>
        <time>2023-08-13T09:34:07Z</time>
      </trkpt>
      <trkpt lat="46.08171" lon="6.76041">
        <ele>1418.6</ele>
        <time>2023-08-13T09:34:24Z</time>
      </trkpt>
      <trkpt lat="46.08169" lon="6.76041">
        <ele>1417.9</ele>
        <time>2023-08-13T09:34:25Z</time>
      </trkpt>
      <trkpt lat="46.08151" lon="6.76034">
        <ele>1400.7</ele>
        <time>2023-08-13T09:34:34Z</time>
      </trkpt>
      <trkpt lat="46.08148" lon="6.76036">
        <ele>1400.7</ele>
        <time>2023-08-13T09:34:37Z</time>
      </trkpt>
      <trkpt lat="46.08148" lon="6.76038">
        <ele>1400.7</ele>
        <time>2023-08-13T09:34:38Z</time>
      </trkpt>
      <trkpt lat="46.08151" lon="6.7603">
        <ele>1400.6</ele>
        <time>2023-08-13T09:47:51Z</time>
      </trkpt>
      <trkpt lat="46.08151" lon="6.7602">
        <ele>1400.5</ele>
        <time>2023-08-13T09:47:59Z</time>
      </trkpt>
      <trkpt lat="46.08151" lon="6.76018">
        <ele>1400.4</ele>
        <time>2023-08-13T09:48:00Z</time>
      </trkpt>
      <trkpt lat="46.0816" lon="6.75994">
        <ele>1398</ele>
        <time>2023-08-13T09:48:16Z</time>
      </trkpt>
      <trkpt lat="46.08165" lon="6.75969">
        <ele>1394.8</ele>
        <time>2023-08-13T09:48:30Z</time>
      </trkpt>
      <trkpt lat="46.08168" lon="6.75941">
        <ele>1391.5</ele>
        <time>2023-08-13T09:48:39Z</time>
      </trkpt>
      <trkpt lat="46.0817" lon="6.75913">
        <ele>1387.6</ele>
        <time>2023-08-13T09:48:50Z</time>
      </trkpt>
      <trkpt lat="46.0817" lon="6.75886">
        <ele>1383.8</ele>
        <time>2023-08-13T09:49:00Z</time>
      </trkpt>
      <trkpt lat="46.08172" lon="6.75859">
        <ele>1380.2</ele>
        <time>2023-08-13T09:49:09Z</time>
      </trkpt>
      <trkpt lat="46.08176" lon="6.75834">
        <ele>1377.1</ele>
        <time>2023-08-13T09:49:18Z</time>
      </trkpt>
      <trkpt lat="46.08181" lon="6.75808">
        <ele>1374</ele>
        <time>2023-08-13T09:49:27Z</time>
      </trkpt>
      <trkpt lat="46.08182" lon="6.75781">
        <ele>1370.9</ele>
        <time>2023-08-13T09:49:38Z</time>
      </trkpt>
      <trkpt lat="46.08186" lon="6.75755">
        <ele>1367.9</ele>
        <time>2023-08-13T09:49:46Z</time>
      </trkpt>
      <trkpt lat="46.08189" lon="6.75739">
        <ele>1365.9</ele>
        <time>2023-08-13T09:49:52Z</time>
      </trkpt>
      <trkpt lat="46.08187" lon="6.75738">
        <ele>1365.4</ele>
        <time>2023-08-13T09:49:54Z</time>
      </trkpt>
      <trkpt lat="46.08185" lon="6.75742">
        <ele>1364.7</ele>
        <time>2023-08-13T09:49:56Z</time>
      </trkpt>
      <trkpt lat="46.08172" lon="6.75763">
        <ele>1361.4</ele>
        <time>2023-08-13T09:50:05Z</time>
      </trkpt>
      <trkpt lat="46.08159" lon="6.75782">
        <ele>1359</ele>
        <time>2023-08-13T09:50:13Z</time>
      </trkpt>
      <trkpt lat="46.08146" lon="6.75803">
        <ele>1356.1</ele>
        <time>2023-08-13T09:50:21Z</time>
      </trkpt>
      <trkpt lat="46.08132" lon="6.75824">
        <ele>1352.5</ele>
        <time>2023-08-13T09:50:29Z</time>
      </trkpt>
      <trkpt lat="46.08123" lon="6.75848">
        <ele>1348.8</ele>
        <time>2023-08-13T09:50:36Z</time>
      </trkpt>
      <trkpt lat="46.08119" lon="6.75851">
        <ele>1347.7</ele>
        <time>2023-08-13T09:50:39Z</time>
      </trkpt>
      <trkpt lat="46.08116" lon="6.75823">
        <ele>1343.7</ele>
        <time>2023-08-13T09:50:48Z</time>
      </trkpt>
      <trkpt lat="46.08121" lon="6.75797">
        <ele>1339.9</ele>
        <time>2023-08-13T09:50:57Z</time>
      </trkpt>
      <trkpt lat="46.08123" lon="6.75769">
        <ele>1336</ele>
        <time>2023-08-13T09:51:06Z</time>
      </trkpt>
      <trkpt lat="46.08123" lon="6.75741">
        <ele>1332.2</ele>
        <time>2023-08-13T09:51:14Z</time>
      </trkpt>
      <trkpt lat="46.08128" lon="6.75716">
        <ele>1328.6</ele>
        <time>2023-08-13T09:51:23Z</time>
      </trkpt>
      <trkpt lat="46.08137" lon="6.75693">
        <ele>1324.9</ele>
        <time>2023-08-13T09:51:30Z</time>
      </trkpt>
      <trkpt lat="46.0814" lon="6.75664">
        <ele>1320.9</ele>
        <time>2023-08-13T09:51:37Z</time>
      </trkpt>
      <trkpt lat="46.08137" lon="6.75635">
        <ele>1317.3</ele>
        <time>2023-08-13T09:51:43Z</time>
      </trkpt>
      <trkpt lat="46.0814" lon="6.75606">
        <ele>1313.8</ele>
        <time>2023-08-13T09:51:51Z</time>
      </trkpt>
      <trkpt lat="46.08143" lon="6.75579">
        <ele>1310.3</ele>
        <time>2023-08-13T09:51:59Z</time>
      </trkpt>
      <trkpt lat="46.08145" lon="6.75552">
        <ele>1306.7</ele>
        <time>2023-08-13T09:52:08Z</time>
      </trkpt>
      <trkpt lat="46.0815" lon="6.75522">
        <ele>1302.1</ele>
        <time>2023-08-13T09:52:17Z</time>
      </trkpt>
      <trkpt lat="46.08152" lon="6.75514">
        <ele>1300.8</ele>
        <time>2023-08-13T09:52:20Z</time>
      </trkpt>
      <trkpt lat="46.0815" lon="6.75517">
        <ele>1300.2</ele>
        <time>2023-08-13T09:52:23Z</time>
      </trkpt>
      <trkpt lat="46.08137" lon="6.75536">
        <ele>1296.9</ele>
        <time>2023-08-13T09:52:33Z</time>
      </trkpt>
      <trkpt lat="46.08122" lon="6.75554">
        <ele>1293.6</ele>
        <time>2023-08-13T09:52:42Z</time>
      </trkpt>
      <trkpt lat="46.08106" lon="6.75571">
        <ele>1290</ele>
        <time>2023-08-13T09:52:50Z</time>
      </trkpt>
      <trkpt lat="46.08094" lon="6.75592">
        <ele>1286.7</ele>
        <time>2023-08-13T09:52:58Z</time>
      </trkpt>
      <trkpt lat="46.0808" lon="6.75611">
        <ele>1283.8</ele>
        <time>2023-08-13T09:53:05Z</time>
      </trkpt>
      <trkpt lat="46.08067" lon="6.75631">
        <ele>1280.8</ele>
        <time>2023-08-13T09:53:12Z</time>
      </trkpt>
      <trkpt lat="46.08055" lon="6.75653">
        <ele>1277.5</ele>
        <time>2023-08-13T09:53:18Z</time>
      </trkpt>
      <trkpt lat="46.08042" lon="6.75673">
        <ele>1274.6</ele>
        <time>2023-08-13T09:53:25Z</time>
      </trkpt>
      <trkpt lat="46.08026" lon="6.75687">
        <ele>1272</ele>
        <time>2023-08-13T09:53:31Z</time>
      </trkpt>
      <trkpt lat="46.08015" lon="6.7571">
        <ele>1269</ele>
        <time>2023-08-13T09:53:37Z</time>
      </trkpt>
      <trkpt lat="46.08005" lon="6.75735">
        <ele>1266.1</ele>
        <time>2023-08-13T09:53:43Z</time>
      </trkpt>
      <trkpt lat="46.07997" lon="6.7576">
        <ele>1263.4</ele>
        <time>2023-08-13T09:53:50Z</time>
      </trkpt>
      <trkpt lat="46.07986" lon="6.75784">
        <ele>1260.3</ele>
        <time>2023-08-13T09:53:58Z</time>
      </trkpt>
      <trkpt lat="46.07974" lon="6.75805">
        <ele>1257.1</ele>
        <time>2023-08-13T09:54:07Z</time>
      </trkpt>
      <trkpt lat="46.07964" lon="6.75808">
        <ele>1255.3</ele>
        <time>2023-08-13T09:54:12Z</time>
      </trkpt>
      <trkpt lat="46.0797" lon="6.75783">
        <ele>1252</ele>
        <time>2023-08-13T09:54:22Z</time>
      </trkpt>
      <trkpt lat="46.07976" lon="6.75756">
        <ele>1248.5</ele>
        <time>2023-08-13T09:54:33Z</time>
      </trkpt>
      <trkpt lat="46.07978" lon="6.75728">
        <ele>1245.2</ele>
        <time>2023-08-13T09:54:42Z</time>
      </trkpt>
      <trkpt lat="46.07979" lon="6.75714">
        <ele>1243.6</ele>
        <time>2023-08-13T09:54:46Z</time>
      </trkpt>
      <trkpt lat="46.07986" lon="6.75687">
        <ele>1240.2</ele>
        <time>2023-08-13T09:54:54Z</time>
      </trkpt>
      <trkpt lat="46.07989" lon="6.7566">
        <ele>1236.9</ele>
        <time>2023-08-13T09:55:03Z</time>
      </trkpt>
      <trkpt lat="46.07994" lon="6.75646">
        <ele>1234.9</ele>
        <time>2023-08-13T09:55:07Z</time>
      </trkpt>
      <trkpt lat="46.07992" lon="6.75643">
        <ele>1234.3</ele>
        <time>2023-08-13T09:55:10Z</time>
      </trkpt>
      <trkpt lat="46.07973" lon="6.75652">
        <ele>1229.4</ele>
        <time>2023-08-13T09:55:21Z</time>
      </trkpt>
      <trkpt lat="46.07957" lon="6.75666">
        <ele>1225</ele>
        <time>2023-08-13T09:55:29Z</time>
      </trkpt>
      <trkpt lat="46.07944" lon="6.75687">
        <ele>1221.2</ele>
        <time>2023-08-13T09:55:36Z</time>
      </trkpt>
      <trkpt lat="46.07928" lon="6.757">
        <ele>1217.8</ele>
        <time>2023-08-13T09:55:43Z</time>
      </trkpt>
      <trkpt lat="46.0791" lon="6.75717">
        <ele>1214</ele>
        <time>2023-08-13T09:55:50Z</time>
      </trkpt>
      <trkpt lat="46.07892" lon="6.75731">
        <ele>1210.2</ele>
        <time>2023-08-13T09:55:56Z</time>
      </trkpt>
      <trkpt lat="46.07879" lon="6.7575">
        <ele>1206.9</ele>
        <time>2023-08-13T09:56:02Z</time>
      </trkpt>
      <trkpt lat="46.07873" lon="6.75774">
        <ele>1204.1</ele>
        <time>2023-08-13T09:56:08Z</time>
      </trkpt>
      <trkpt lat="46.07866" lon="6.758">
        <ele>1200.7</ele>
        <time>2023-08-13T09:56:14Z</time>
      </trkpt>
      <trkpt lat="46.07861" lon="6.75826">
        <ele>1197.7</ele>
        <time>2023-08-13T09:56:21Z</time>
      </trkpt>
      <trkpt lat="46.07857" lon="6.75852">
        <ele>1194.9</ele>
        <time>2023-08-13T09:56:29Z</time>
      </trkpt>
      <trkpt lat="46.07851" lon="6.75877">
        <ele>1192</ele>
        <time>2023-08-13T09:56:36Z</time>
      </trkpt>
      <trkpt lat="46.07843" lon="6.75903">
        <ele>1188.6</ele>
        <time>2023-08-13T09:56:44Z</time>
      </trkpt>
      <trkpt lat="46.07824" lon="6.75912">
        <ele>1185</ele>
        <time>2023-08-13T09:56:51Z</time>
      </trkpt>
      <trkpt lat="46.07806" lon="6.75924">
        <ele>1181.9</ele>
        <time>2023-08-13T09:56:59Z</time>
      </trkpt>
      <trkpt lat="46.07791" lon="6.75941">
        <ele>1178.6</ele>
        <time>2023-08-13T09:57:05Z</time>
      </trkpt>
      <trkpt lat="46.07781" lon="6.75963">
        <ele>1175.4</ele>
        <time>2023-08-13T09:57:12Z</time>
      </trkpt>
      <trkpt lat="46.07767" lon="6.75987">
        <ele>1171.1</ele>
        <time>2023-08-13T09:57:20Z</time>
      </trkpt>
      <trkpt lat="46.07749" lon="6.76">
        <ele>1166.5</ele>
        <time>2023-08-13T09:57:28Z</time>
      </trkpt>
      <trkpt lat="46.07736" lon="6.76019">
        <ele>1162.5</ele>
        <time>2023-08-13T09:57:35Z</time>
      </trkpt>
      <trkpt lat="46.07718" lon="6.76034">
        <ele>1158.1</ele>
        <time>2023-08-13T09:57:42Z</time>
      </trkpt>
      <trkpt lat="46.07704" lon="6.76055">
        <ele>1154.8</ele>
        <time>2023-08-13T09:57:48Z</time>
      </trkpt>
      <trkpt lat="46.07693" lon="6.76079">
        <ele>1151.5</ele>
        <time>2023-08-13T09:57:55Z</time>
      </trkpt>
      <trkpt lat="46.07674" lon="6.76093">
        <ele>1147.8</ele>
        <time>2023-08-13T09:58:01Z</time>
      </trkpt>
      <trkpt lat="46.07653" lon="6.761">
        <ele>1143.9</ele>
        <time>2023-08-13T09:58:08Z</time>
      </trkpt>
      <trkpt lat="46.07637" lon="6.76086">
        <ele>1140.5</ele>
        <time>2023-08-13T09:58:14Z</time>
      </trkpt>
      <trkpt lat="46.07628" lon="6.76059">
        <ele>1135.3</ele>
        <time>2023-08-13T09:58:18Z</time>
      </trkpt>
      <trkpt lat="46.07625" lon="6.76033">
        <ele>1131.9</ele>
        <time>2023-08-13T09:58:23Z</time>
      </trkpt>
      <trkpt lat="46.07628" lon="6.76008">
        <ele>1129.1</ele>
        <time>2023-08-13T09:58:30Z</time>
      </trkpt>
      <trkpt lat="46.07639" lon="6.75983">
        <ele>1125.8</ele>
        <time>2023-08-13T09:58:37Z</time>
      </trkpt>
      <trkpt lat="46.07646" lon="6.75959">
        <ele>1122.9</ele>
        <time>2023-08-13T09:58:44Z</time>
      </trkpt>
      <trkpt lat="46.07658" lon="6.7594">
        <ele>1120.2</ele>
        <time>2023-08-13T09:58:50Z</time>
      </trkpt>
      <trkpt lat="46.07666" lon="6.75916">
        <ele>1117.4</ele>
        <time>2023-08-13T09:58:58Z</time>
      </trkpt>
      <trkpt lat="46.07665" lon="6.75908">
        <ele>1116.3</ele>
        <time>2023-08-13T09:59:01Z</time>
      </trkpt>
      <trkpt lat="46.07647" lon="6.75904">
        <ele>1112.9</ele>
        <time>2023-08-13T09:59:10Z</time>
      </trkpt>
      <trkpt lat="46.07636" lon="6.75926">
        <ele>1109.8</ele>
        <time>2023-08-13T09:59:18Z</time>
      </trkpt>
      <trkpt lat="46.07624" lon="6.75947">
        <ele>1107.2</ele>
        <time>2023-08-13T09:59:26Z</time>
      </trkpt>
      <trkpt lat="46.07605" lon="6.75955">
        <ele>1104</ele>
        <time>2023-08-13T09:59:34Z</time>
      </trkpt>
      <trkpt lat="46.07591" lon="6.75935">
        <ele>1098.6</ele>
        <time>2023-08-13T09:59:41Z</time>
      </trkpt>
      <trkpt lat="46.07592" lon="6.75914">
        <ele>1094.4</ele>
        <time>2023-08-13T09:59:54Z</time>
      </trkpt>
      <trkpt lat="46.07605" lon="6.7589">
        <ele>1089.6</ele>
        <time>2023-08-13T10:00:02Z</time>
      </trkpt>
      <trkpt lat="46.07614" lon="6.75866">
        <ele>1085.7</ele>
        <time>2023-08-13T10:00:10Z</time>
      </trkpt>
      <trkpt lat="46.07617" lon="6.75839">
        <ele>1081.5</ele>
        <time>2023-08-13T10:00:17Z</time>
      </trkpt>
      <trkpt lat="46.07619" lon="6.75811">
        <ele>1077.1</ele>
        <time>2023-08-13T10:00:24Z</time>
      </trkpt>
      <trkpt lat="46.07619" lon="6.75806">
        <ele>1076.3</ele>
        <time>2023-08-13T10:00:25Z</time>
      </trkpt>
      <trkpt lat="46.07628" lon="6.75777">
        <ele>1071.9</ele>
        <time>2023-08-13T10:00:31Z</time>
      </trkpt>
      <trkpt lat="46.07634" lon="6.7575">
        <ele>1068.3</ele>
        <time>2023-08-13T10:00:38Z</time>
      </trkpt>
      <trkpt lat="46.07642" lon="6.75726">
        <ele>1065.4</ele>
        <time>2023-08-13T10:00:44Z</time>
      </trkpt>
      <trkpt lat="46.07644" lon="6.757">
        <ele>1061.8</ele>
        <time>2023-08-13T10:00:51Z</time>
      </trkpt>
      <trkpt lat="46.07643" lon="6.75698">
        <ele>1061.3</ele>
        <time>2023-08-13T10:00:52Z</time>
      </trkpt>
      <trkpt lat="46.07625" lon="6.75704">
        <ele>1057.3</ele>
        <time>2023-08-13T10:01:00Z</time>
      </trkpt>
      <trkpt lat="46.07608" lon="6.75719">
        <ele>1052.9</ele>
        <time>2023-08-13T10:01:07Z</time>
      </trkpt>
      <trkpt lat="46.07591" lon="6.7571">
        <ele>1051.1</ele>
        <time>2023-08-13T10:01:14Z</time>
      </trkpt>
      <trkpt lat="46.07584" lon="6.75686">
        <ele>1048.1</ele>
        <time>2023-08-13T10:01:19Z</time>
      </trkpt>
      <trkpt lat="46.07585" lon="6.7566">
        <ele>1045.2</ele>
        <time>2023-08-13T10:01:24Z</time>
      </trkpt>
      <trkpt lat="46.07581" lon="6.75634">
        <ele>1042.5</ele>
        <time>2023-08-13T10:01:30Z</time>
      </trkpt>
      <trkpt lat="46.07574" lon="6.7561">
        <ele>1040</ele>
        <time>2023-08-13T10:01:35Z</time>
      </trkpt>
      <trkpt lat="46.07564" lon="6.75585">
        <ele>1037</ele>
        <time>2023-08-13T10:01:41Z</time>
      </trkpt>
      <trkpt lat="46.07558" lon="6.75558">
        <ele>1034</ele>
        <time>2023-08-13T10:01:47Z</time>
      </trkpt>
      <trkpt lat="46.07548" lon="6.75535">
        <ele>1031.1</ele>
        <time>2023-08-13T10:01:53Z</time>
      </trkpt>
      <trkpt lat="46.07532" lon="6.75518">
        <ele>1028.1</ele>
        <time>2023-08-13T10:02:00Z</time>
      </trkpt>
      <trkpt lat="46.07514" lon="6.75516">
        <ele>1025.3</ele>
        <time>2023-08-13T10:02:06Z</time>
      </trkpt>
      <trkpt lat="46.07495" lon="6.7552">
        <ele>1022.1</ele>
        <time>2023-08-13T10:02:13Z</time>
      </trkpt>
      <trkpt lat="46.07475" lon="6.75525">
        <ele>1018.8</ele>
        <time>2023-08-13T10:02:20Z</time>
      </trkpt>
      <trkpt lat="46.07463" lon="6.75544">
        <ele>1015</ele>
        <time>2023-08-13T10:02:26Z</time>
      </trkpt>
      <trkpt lat="46.07446" lon="6.7556">
        <ele>1011.3</ele>
        <time>2023-08-13T10:02:33Z</time>
      </trkpt>
      <trkpt lat="46.0743" lon="6.75575">
        <ele>1007.8</ele>
        <time>2023-08-13T10:02:39Z</time>
      </trkpt>
      <trkpt lat="46.07425" lon="6.75574">
        <ele>1007.1</ele>
        <time>2023-08-13T10:02:41Z</time>
      </trkpt>
      <trkpt lat="46.0741" lon="6.75556">
        <ele>1003.1</ele>
        <time>2023-08-13T10:02:47Z</time>
      </trkpt>
      <trkpt lat="46.07402" lon="6.7553">
        <ele>999.1</ele>
        <time>2023-08-13T10:02:54Z</time>
      </trkpt>
      <trkpt lat="46.07399" lon="6.75505">
        <ele>995.3</ele>
        <time>2023-08-13T10:03:01Z</time>
      </trkpt>
      <trkpt lat="46.07384" lon="6.75493">
        <ele>991.3</ele>
        <time>2023-08-13T10:03:09Z</time>
      </trkpt>
      <trkpt lat="46.07364" lon="6.75494">
        <ele>987.4</ele>
        <time>2023-08-13T10:03:16Z</time>
      </trkpt>
      <trkpt lat="46.07344" lon="6.75494">
        <ele>984.1</ele>
        <time>2023-08-13T10:03:23Z</time>
      </trkpt>
      <trkpt lat="46.07326" lon="6.75501">
        <ele>981.2</ele>
        <time>2023-08-13T10:03:30Z</time>
      </trkpt>
      <trkpt lat="46.07309" lon="6.75517">
        <ele>977.8</ele>
        <time>2023-08-13T10:03:37Z</time>
      </trkpt>
      <trkpt lat="46.07301" lon="6.7552">
        <ele>976.2</ele>
        <time>2023-08-13T10:03:41Z</time>
      </trkpt>
      <trkpt lat="46.07298" lon="6.75516">
        <ele>975.6</ele>
        <time>2023-08-13T10:03:43Z</time>
      </trkpt>
      <trkpt lat="46.073" lon="6.75488">
        <ele>972.5</ele>
        <time>2023-08-13T10:03:51Z</time>
      </trkpt>
      <trkpt lat="46.07312" lon="6.75466">
        <ele>969.5</ele>
        <time>2023-08-13T10:03:59Z</time>
      </trkpt>
      <trkpt lat="46.07323" lon="6.75444">
        <ele>966.1</ele>
        <time>2023-08-13T10:04:05Z</time>
      </trkpt>
      <trkpt lat="46.07336" lon="6.75422">
        <ele>962.7</ele>
        <time>2023-08-13T10:04:13Z</time>
      </trkpt>
      <trkpt lat="46.07354" lon="6.75407">
        <ele>959.7</ele>
        <time>2023-08-13T10:04:20Z</time>
      </trkpt>
      <trkpt lat="46.07372" lon="6.75394">
        <ele>956.5</ele>
        <time>2023-08-13T10:04:26Z</time>
      </trkpt>
      <trkpt lat="46.07391" lon="6.75391">
        <ele>953.3</ele>
        <time>2023-08-13T10:04:33Z</time>
      </trkpt>
      <trkpt lat="46.07411" lon="6.75378">
        <ele>949.8</ele>
        <time>2023-08-13T10:04:42Z</time>
      </trkpt>
      <trkpt lat="46.07427" lon="6.75363">
        <ele>947.2</ele>
        <time>2023-08-13T10:04:48Z</time>
      </trkpt>
      <trkpt lat="46.07432" lon="6.75338">
        <ele>940.5</ele>
        <time>2023-08-13T10:04:55Z</time>
      </trkpt>
      <trkpt lat="46.07438" lon="6.75313">
        <ele>936.4</ele>
        <time>2023-08-13T10:05:02Z</time>
      </trkpt>
      <trkpt lat="46.07451" lon="6.75293">
        <ele>931.7</ele>
        <time>2023-08-13T10:05:10Z</time>
      </trkpt>
      <trkpt lat="46.07472" lon="6.7529">
        <ele>926.7</ele>
        <time>2023-08-13T10:05:18Z</time>
      </trkpt>
      <trkpt lat="46.07488" lon="6.75273">
        <ele>922</ele>
        <time>2023-08-13T10:05:24Z</time>
      </trkpt>
      <trkpt lat="46.07497" lon="6.75247">
        <ele>918.3</ele>
        <time>2023-08-13T10:05:31Z</time>
      </trkpt>
      <trkpt lat="46.07504" lon="6.75221">
        <ele>914.7</ele>
        <time>2023-08-13T10:05:39Z</time>
      </trkpt>
      <trkpt lat="46.07507" lon="6.75211">
        <ele>913.2</ele>
        <time>2023-08-13T10:05:42Z</time>
      </trkpt>
      <trkpt lat="46.07513" lon="6.75183">
        <ele>909.2</ele>
        <time>2023-08-13T10:05:50Z</time>
      </trkpt>
      <trkpt lat="46.07528" lon="6.75166">
        <ele>905</ele>
        <time>2023-08-13T10:05:58Z</time>
      </trkpt>
      <trkpt lat="46.0754" lon="6.75144">
        <ele>900.8</ele>
        <time>2023-08-13T10:06:07Z</time>
      </trkpt>
      <trkpt lat="46.07549" lon="6.75119">
        <ele>897.2</ele>
        <time>2023-08-13T10:06:13Z</time>
      </trkpt>
      <trkpt lat="46.07563" lon="6.751">
        <ele>894.4</ele>
        <time>2023-08-13T10:06:19Z</time>
      </trkpt>
      <trkpt lat="46.07579" lon="6.75085">
        <ele>891.4</ele>
        <time>2023-08-13T10:06:26Z</time>
      </trkpt>
      <trkpt lat="46.07592" lon="6.75065">
        <ele>888.4</ele>
        <time>2023-08-13T10:06:34Z</time>
      </trkpt>
      <trkpt lat="46.076" lon="6.75049">
        <ele>886</ele>
        <time>2023-08-13T10:06:41Z</time>
      </trkpt>
      <trkpt lat="46.0761" lon="6.75024">
        <ele>882.3</ele>
        <time>2023-08-13T10:06:49Z</time>
      </trkpt>
      <trkpt lat="46.07618" lon="6.75">
        <ele>878.4</ele>
        <time>2023-08-13T10:06:58Z</time>
      </trkpt>
      <trkpt lat="46.07614" lon="6.74972">
        <ele>873.9</ele>
        <time>2023-08-13T10:07:06Z</time>
      </trkpt>
      <trkpt lat="46.07614" lon="6.74943">
        <ele>869.8</ele>
        <time>2023-08-13T10:07:13Z</time>
      </trkpt>
      <trkpt lat="46.07621" lon="6.74917">
        <ele>866.2</ele>
        <time>2023-08-13T10:07:21Z</time>
      </trkpt>
      <trkpt lat="46.07633" lon="6.74894">
        <ele>862.7</ele>
        <time>2023-08-13T10:07:30Z</time>
      </trkpt>
      <trkpt lat="46.07646" lon="6.74871">
        <ele>858.9</ele>
        <time>2023-08-13T10:07:38Z</time>
      </trkpt>
      <trkpt lat="46.07655" lon="6.74846">
        <ele>855.3</ele>
        <time>2023-08-13T10:07:46Z</time>
      </trkpt>
      <trkpt lat="46.07651" lon="6.74817">
        <ele>851.3</ele>
        <time>2023-08-13T10:07:53Z</time>
      </trkpt>
      <trkpt lat="46.07632" lon="6.74811">
        <ele>847</ele>
        <time>2023-08-13T10:08:00Z</time>
      </trkpt>
      <trkpt lat="46.07612" lon="6.74816">
        <ele>842.5</ele>
        <time>2023-08-13T10:08:07Z</time>
      </trkpt>
      <trkpt lat="46.07594" lon="6.74824">
        <ele>838.8</ele>
        <time>2023-08-13T10:08:14Z</time>
      </trkpt>
      <trkpt lat="46.07578" lon="6.74842">
        <ele>835.3</ele>
        <time>2023-08-13T10:08:22Z</time>
      </trkpt>
      <trkpt lat="46.07561" lon="6.74855">
        <ele>832.1</ele>
        <time>2023-08-13T10:08:31Z</time>
      </trkpt>
      <trkpt lat="46.07544" lon="6.74869">
        <ele>828.8</ele>
        <time>2023-08-13T10:08:38Z</time>
      </trkpt>
      <trkpt lat="46.07528" lon="6.74886">
        <ele>825.6</ele>
        <time>2023-08-13T10:08:45Z</time>
      </trkpt>
      <trkpt lat="46.07512" lon="6.74901">
        <ele>822.5</ele>
        <time>2023-08-13T10:08:51Z</time>
      </trkpt>
      <trkpt lat="46.07493" lon="6.74907">
        <ele>820</ele>
        <time>2023-08-13T10:08:57Z</time>
      </trkpt>
      <trkpt lat="46.07474" lon="6.74903">
        <ele>816.7</ele>
        <time>2023-08-13T10:09:06Z</time>
      </trkpt>
      <trkpt lat="46.07464" lon="6.74879">
        <ele>810.7</ele>
        <time>2023-08-13T10:09:14Z</time>
      </trkpt>
      <trkpt lat="46.0747" lon="6.74854">
        <ele>806.7</ele>
        <time>2023-08-13T10:09:22Z</time>
      </trkpt>
      <trkpt lat="46.07476" lon="6.74826">
        <ele>801.9</ele>
        <time>2023-08-13T10:09:29Z</time>
      </trkpt>
      <trkpt lat="46.0748" lon="6.748">
        <ele>797.8</ele>
        <time>2023-08-13T10:09:35Z</time>
      </trkpt>
      <trkpt lat="46.07484" lon="6.74772">
        <ele>793.6</ele>
        <time>2023-08-13T10:09:42Z</time>
      </trkpt>
      <trkpt lat="46.07495" lon="6.74748">
        <ele>789.8</ele>
        <time>2023-08-13T10:09:50Z</time>
      </trkpt>
      <trkpt lat="46.075" lon="6.7472">
        <ele>785.6</ele>
        <time>2023-08-13T10:09:58Z</time>
      </trkpt>
      <trkpt lat="46.07504" lon="6.7469">
        <ele>781</ele>
        <time>2023-08-13T10:10:04Z</time>
      </trkpt>
      <trkpt lat="46.07501" lon="6.7466">
        <ele>777</ele>
        <time>2023-08-13T10:10:10Z</time>
      </trkpt>
      <trkpt lat="46.07499" lon="6.74632">
        <ele>772.9</ele>
        <time>2023-08-13T10:10:17Z</time>
      </trkpt>
      <trkpt lat="46.07503" lon="6.74603">
        <ele>768.2</ele>
        <time>2023-08-13T10:10:26Z</time>
      </trkpt>
      <trkpt lat="46.07507" lon="6.74578">
        <ele>764.7</ele>
        <time>2023-08-13T10:10:33Z</time>
      </trkpt>
      <trkpt lat="46.07504" lon="6.74548">
        <ele>760.7</ele>
        <time>2023-08-13T10:10:41Z</time>
      </trkpt>
      <trkpt lat="46.07509" lon="6.74521">
        <ele>756.3</ele>
        <time>2023-08-13T10:10:50Z</time>
      </trkpt>
      <trkpt lat="46.07517" lon="6.74499">
        <ele>752.1</ele>
        <time>2023-08-13T10:10:59Z</time>
      </trkpt>
      <trkpt lat="46.07532" lon="6.74482">
        <ele>747.8</ele>
        <time>2023-08-13T10:11:07Z</time>
      </trkpt>
      <trkpt lat="46.07545" lon="6.74456">
        <ele>743.4</ele>
        <time>2023-08-13T10:11:14Z</time>
      </trkpt>
      <trkpt lat="46.07558" lon="6.74436">
        <ele>739.8</ele>
        <time>2023-08-13T10:11:21Z</time>
      </trkpt>
      <trkpt lat="46.07572" lon="6.74419">
        <ele>736.3</ele>
        <time>2023-08-13T10:11:31Z</time>
      </trkpt>
      <trkpt lat="46.07574" lon="6.74417">
        <ele>735.8</ele>
        <time>2023-08-13T10:11:32Z</time>
      </trkpt>
      <trkpt lat="46.07585" lon="6.74393">
        <ele>731.5</ele>
        <time>2023-08-13T10:11:39Z</time>
      </trkpt>
      <trkpt lat="46.07587" lon="6.74366">
        <ele>725.3</ele>
        <time>2023-08-13T10:11:46Z</time>
      </trkpt>
      <trkpt lat="46.07584" lon="6.74363">
        <ele>724.3</ele>
        <time>2023-08-13T10:11:48Z</time>
      </trkpt>
      <trkpt lat="46.07566" lon="6.74359">
        <ele>720.8</ele>
        <time>2023-08-13T10:11:56Z</time>
      </trkpt>
      <trkpt lat="46.0755" lon="6.74346">
        <ele>717.8</ele>
        <time>2023-08-13T10:12:06Z</time>
      </trkpt>
      <trkpt lat="46.07539" lon="6.7432">
        <ele>715.2</ele>
        <time>2023-08-13T10:12:13Z</time>
      </trkpt>
      <trkpt lat="46.0753" lon="6.74296">
        <ele>713.8</ele>
        <time>2023-08-13T10:12:19Z</time>
      </trkpt>
      <trkpt lat="46.07524" lon="6.74271">
        <ele>712.7</ele>
        <time>2023-08-13T10:12:29Z</time>
      </trkpt>
      <trkpt lat="46.07532" lon="6.74264">
        <ele>712.6</ele>
        <time>2023-08-13T10:12:45Z</time>
      </trkpt>
      <trkpt lat="46.07531" lon="6.74253">
        <ele>712.6</ele>
        <time>2023-08-13T10:13:30Z</time>
      </trkpt>
      <trkpt lat="46.07537" lon="6.74227">
        <ele>712.4</ele>
        <time>2023-08-13T10:13:37Z</time>
      </trkpt>
      <trkpt lat="46.07541" lon="6.742">
        <ele>712.3</ele>
        <time>2023-08-13T10:13:44Z</time>
      </trkpt>
      <trkpt lat="46.07543" lon="6.74174">
        <ele>712.1</ele>
        <time>2023-08-13T10:13:51Z</time>
      </trkpt>
      <trkpt lat="46.07549" lon="6.7415">
        <ele>712</ele>
        <time>2023-08-13T10:13:58Z</time>
      </trkpt>
      <trkpt lat="46.07555" lon="6.74121">
        <ele>711.8</ele>
        <time>2023-08-13T10:14:07Z</time>
      </trkpt>
      <trkpt lat="46.07561" lon="6.74094">
        <ele>711.6</ele>
        <time>2023-08-13T10:14:14Z</time>
      </trkpt>
      <trkpt lat="46.07561" lon="6.74065">
        <ele>711.5</ele>
        <time>2023-08-13T10:14:22Z</time>
      </trkpt>
      <trkpt lat="46.07563" lon="6.7404">
        <ele>711.3</ele>
        <time>2023-08-13T10:14:30Z</time>
      </trkpt>
      <trkpt lat="46.07573" lon="6.74016">
        <ele>711.1</ele>
        <time>2023-08-13T10:14:38Z</time>
      </trkpt>
      <trkpt lat="46.0759" lon="6.74001">
        <ele>711</ele>
        <time>2023-08-13T10:14:45Z</time>
      </trkpt>
      <trkpt lat="46.07603" lon="6.73982">
        <ele>710.8</ele>
        <time>2023-08-13T10:14:53Z</time>
      </trkpt>
      <trkpt lat="46.07614" lon="6.73961">
        <ele>710.7</ele>
        <time>2023-08-13T10:15:01Z</time>
      </trkpt>
      <trkpt lat="46.0762" lon="6.73934">
        <ele>710.5</ele>
        <time>2023-08-13T10:15:09Z</time>
      </trkpt>
      <trkpt lat="46.07624" lon="6.73922">
        <ele>710.5</ele>
        <time>2023-08-13T10:15:16Z</time>
      </trkpt>
      <trkpt lat="46.07621" lon="6.7393">
        <ele>710.4</ele>
        <time>2023-08-13T10:15:23Z</time>
      </trkpt>
      <trkpt lat="46.07618" lon="6.73946">
        <ele>710.3</ele>
        <time>2023-08-13T10:15:32Z</time>
      </trkpt>
      <trkpt lat="46.07614" lon="6.73947">
        <ele>710.3</ele>
        <time>2023-08-13T10:16:32Z</time>
      </trkpt>
      <trkpt lat="46.07618" lon="6.73922">
        <ele>710.1</ele>
        <time>2023-08-13T10:16:40Z</time>
      </trkpt>
      <trkpt lat="46.07625" lon="6.73895">
        <ele>709.9</ele>
        <time>2023-08-13T10:16:46Z</time>
      </trkpt>
      <trkpt lat="46.07632" lon="6.73869">
        <ele>709.8</ele>
        <time>2023-08-13T10:16:52Z</time>
      </trkpt>
      <trkpt lat="46.07639" lon="6.73842">
        <ele>709.7</ele>
        <time>2023-08-13T10:17:00Z</time>
      </trkpt>
      <trkpt lat="46.07645" lon="6.73817">
        <ele>709.6</ele>
        <time>2023-08-13T10:17:06Z</time>
      </trkpt>
      <trkpt lat="46.07648" lon="6.73787">
        <ele>709.4</ele>
        <time>2023-08-13T10:17:12Z</time>
      </trkpt>
      <trkpt lat="46.07648" lon="6.73758">
        <ele>709.3</ele>
        <time>2023-08-13T10:17:18Z</time>
      </trkpt>
      <trkpt lat="46.07648" lon="6.73731">
        <ele>709.1</ele>
        <time>2023-08-13T10:17:24Z</time>
      </trkpt>
      <trkpt lat="46.0765" lon="6.73704">
        <ele>708.8</ele>
        <time>2023-08-13T10:17:30Z</time>
      </trkpt>
      <trkpt lat="46.07648" lon="6.73678">
        <ele>708.5</ele>
        <time>2023-08-13T10:17:36Z</time>
      </trkpt>
      <trkpt lat="46.07651" lon="6.7365">
        <ele>708.3</ele>
        <time>2023-08-13T10:17:43Z</time>
      </trkpt>
      <trkpt lat="46.07657" lon="6.73625">
        <ele>708.2</ele>
        <time>2023-08-13T10:17:49Z</time>
      </trkpt>
      <trkpt lat="46.07667" lon="6.73602">
        <ele>708.1</ele>
        <time>2023-08-13T10:17:55Z</time>
      </trkpt>
      <trkpt lat="46.07679" lon="6.73578">
        <ele>707.9</ele>
        <time>2023-08-13T10:18:01Z</time>
      </trkpt>
      <trkpt lat="46.0769" lon="6.73558">
        <ele>707.9</ele>
        <time>2023-08-13T10:18:07Z</time>
      </trkpt>
      <trkpt lat="46.07701" lon="6.73536">
        <ele>707.9</ele>
        <time>2023-08-13T10:18:14Z</time>
      </trkpt>
      <trkpt lat="46.07717" lon="6.73523">
        <ele>708</ele>
        <time>2023-08-13T10:18:21Z</time>
      </trkpt>
      <trkpt lat="46.07733" lon="6.73509">
        <ele>708.1</ele>
        <time>2023-08-13T10:18:27Z</time>
      </trkpt>
      <trkpt lat="46.0774" lon="6.73484">
        <ele>708.2</ele>
        <time>2023-08-13T10:18:33Z</time>
      </trkpt>
      <trkpt lat="46.07753" lon="6.73464">
        <ele>708.3</ele>
        <time>2023-08-13T10:18:40Z</time>
      </trkpt>
      <trkpt lat="46.0777" lon="6.73449">
        <ele>708.4</ele>
        <time>2023-08-13T10:18:47Z</time>
      </trkpt>
      <trkpt lat="46.07786" lon="6.73435">
        <ele>708.5</ele>
        <time>2023-08-13T10:18:53Z</time>
      </trkpt>
      <trkpt lat="46.07801" lon="6.7342">
        <ele>708.5</ele>
        <time>2023-08-13T10:18:59Z</time>
      </trkpt>
      <trkpt lat="46.07817" lon="6.73404">
        <ele>708.7</ele>
        <time>2023-08-13T10:19:06Z</time>
      </trkpt>
      <trkpt lat="46.07833" lon="6.73388">
        <ele>709</ele>
        <time>2023-08-13T10:19:13Z</time>
      </trkpt>
      <trkpt lat="46.0785" lon="6.73373">
        <ele>709.4</ele>
        <time>2023-08-13T10:19:20Z</time>
      </trkpt>
      <trkpt lat="46.07866" lon="6.73357">
        <ele>709.7</ele>
        <time>2023-08-13T10:19:27Z</time>
      </trkpt>
      <trkpt lat="46.07881" lon="6.73342">
        <ele>710.2</ele>
        <time>2023-08-13T10:19:34Z</time>
      </trkpt>
      <trkpt lat="46.07896" lon="6.73327">
        <ele>710.6</ele>
        <time>2023-08-13T10:19:41Z</time>
      </trkpt>
      <trkpt lat="46.07911" lon="6.73311">
        <ele>711.1</ele>
        <time>2023-08-13T10:19:49Z</time>
      </trkpt>
      <trkpt lat="46.07927" lon="6.73295">
        <ele>711.6</ele>
        <time>2023-08-13T10:19:56Z</time>
      </trkpt>
      <trkpt lat="46.07943" lon="6.73279">
        <ele>712.4</ele>
        <time>2023-08-13T10:20:03Z</time>
      </trkpt>
      <trkpt lat="46.07958" lon="6.73264">
        <ele>713.1</ele>
        <time>2023-08-13T10:20:10Z</time>
      </trkpt>
      <trkpt lat="46.07975" lon="6.73248">
        <ele>713.9</ele>
        <time>2023-08-13T10:20:18Z</time>
      </trkpt>
      <trkpt lat="46.0799" lon="6.73234">
        <ele>714.7</ele>
        <time>2023-08-13T10:20:25Z</time>
      </trkpt>
      <trkpt lat="46.08005" lon="6.73219">
        <ele>715.4</ele>
        <time>2023-08-13T10:20:32Z</time>
      </trkpt>
      <trkpt lat="46.0802" lon="6.73201">
        <ele>716.1</ele>
        <time>2023-08-13T10:20:39Z</time>
      </trkpt>
      <trkpt lat="46.08035" lon="6.73186">
        <ele>716.6</ele>
        <time>2023-08-13T10:20:46Z</time>
      </trkpt>
      <trkpt lat="46.08051" lon="6.73173">
        <ele>717</ele>
        <time>2023-08-13T10:20:53Z</time>
      </trkpt>
      <trkpt lat="46.08065" lon="6.73157">
        <ele>716.9</ele>
        <time>2023-08-13T10:21:00Z</time>
      </trkpt>
      <trkpt lat="46.08082" lon="6.73142">
        <ele>716.6</ele>
        <time>2023-08-13T10:21:07Z</time>
      </trkpt>
      <trkpt lat="46.08099" lon="6.73131">
        <ele>716.3</ele>
        <time>2023-08-13T10:21:14Z</time>
      </trkpt>
      <trkpt lat="46.08119" lon="6.73121">
        <ele>715.9</ele>
        <time>2023-08-13T10:21:22Z</time>
      </trkpt>
      <trkpt lat="46.08137" lon="6.73112">
        <ele>715.6</ele>
        <time>2023-08-13T10:21:29Z</time>
      </trkpt>
      <trkpt lat="46.08155" lon="6.73104">
        <ele>715.4</ele>
        <time>2023-08-13T10:21:36Z</time>
      </trkpt>
      <trkpt lat="46.08174" lon="6.73095">
        <ele>715.1</ele>
        <time>2023-08-13T10:21:44Z</time>
      </trkpt>
      <trkpt lat="46.08191" lon="6.73082">
        <ele>714.9</ele>
        <time>2023-08-13T10:21:51Z</time>
      </trkpt>
      <trkpt lat="46.08209" lon="6.73068">
        <ele>714.4</ele>
        <time>2023-08-13T10:21:58Z</time>
      </trkpt>
      <trkpt lat="46.08226" lon="6.73053">
        <ele>714.1</ele>
        <time>2023-08-13T10:22:05Z</time>
      </trkpt>
      <trkpt lat="46.0824" lon="6.73037">
        <ele>713.6</ele>
        <time>2023-08-13T10:22:11Z</time>
      </trkpt>
      <trkpt lat="46.08256" lon="6.73019">
        <ele>713.2</ele>
        <time>2023-08-13T10:22:18Z</time>
      </trkpt>
      <trkpt lat="46.08268" lon="6.72997">
        <ele>712.8</ele>
        <time>2023-08-13T10:22:25Z</time>
      </trkpt>
      <trkpt lat="46.0827" lon="6.72997">
        <ele>712.8</ele>
        <time>2023-08-13T10:22:29Z</time>
      </trkpt>
      <trkpt lat="46.08269" lon="6.73001">
        <ele>712.7</ele>
        <time>2023-08-13T10:22:34Z</time>
      </trkpt>
      <trkpt lat="46.08266" lon="6.72974">
        <ele>712.3</ele>
        <time>2023-08-13T10:22:41Z</time>
      </trkpt>
      <trkpt lat="46.08267" lon="6.72947">
        <ele>712</ele>
        <time>2023-08-13T10:22:47Z</time>
      </trkpt>
      <trkpt lat="46.08273" lon="6.72919">
        <ele>711.8</ele>
        <time>2023-08-13T10:22:53Z</time>
      </trkpt>
      <trkpt lat="46.08274" lon="6.7289">
        <ele>711.1</ele>
        <time>2023-08-13T10:22:59Z</time>
      </trkpt>
      <trkpt lat="46.08277" lon="6.72861">
        <ele>710.7</ele>
        <time>2023-08-13T10:23:06Z</time>
      </trkpt>
      <trkpt lat="46.0828" lon="6.72857">
        <ele>710.6</ele>
        <time>2023-08-13T10:23:07Z</time>
      </trkpt>
      <trkpt lat="46.08295" lon="6.72837">
        <ele>710.4</ele>
        <time>2023-08-13T10:23:13Z</time>
      </trkpt>
      <trkpt lat="46.08301" lon="6.72812">
        <ele>709.9</ele>
        <time>2023-08-13T10:23:19Z</time>
      </trkpt>
      <trkpt lat="46.08302" lon="6.72785">
        <ele>709.2</ele>
        <time>2023-08-13T10:23:26Z</time>
      </trkpt>
      <trkpt lat="46.08309" lon="6.72759">
        <ele>708.9</ele>
        <time>2023-08-13T10:23:33Z</time>
      </trkpt>
      <trkpt lat="46.08318" lon="6.72735">
        <ele>708.5</ele>
        <time>2023-08-13T10:23:40Z</time>
      </trkpt>
      <trkpt lat="46.08327" lon="6.72717">
        <ele>708.3</ele>
        <time>2023-08-13T10:23:47Z</time>
      </trkpt>
      <trkpt lat="46.08338" lon="6.72632">
        <ele>707.4</ele>
        <time>2023-08-13T10:27:16Z</time>
      </trkpt>
      <trkpt lat="46.08344" lon="6.72606">
        <ele>707</ele>
        <time>2023-08-13T10:27:29Z</time>
      </trkpt>
      <trkpt lat="46.08356" lon="6.72586">
        <ele>706.8</ele>
        <time>2023-08-13T10:27:39Z</time>
      </trkpt>
      <trkpt lat="46.0837" lon="6.72571">
        <ele>706.6</ele>
        <time>2023-08-13T10:27:50Z</time>
      </trkpt>
      <trkpt lat="46.08374" lon="6.72544">
        <ele>706.5</ele>
        <time>2023-08-13T10:28:00Z</time>
      </trkpt>
      <trkpt lat="46.08366" lon="6.72519">
        <ele>705.8</ele>
        <time>2023-08-13T10:28:12Z</time>
      </trkpt>
      <trkpt lat="46.08349" lon="6.72507">
        <ele>705.2</ele>
        <time>2023-08-13T10:28:23Z</time>
      </trkpt>
      <trkpt lat="46.08333" lon="6.72493">
        <ele>704.6</ele>
        <time>2023-08-13T10:28:33Z</time>
      </trkpt>
      <trkpt lat="46.08331" lon="6.72488">
        <ele>704.5</ele>
        <time>2023-08-13T10:28:36Z</time>
      </trkpt>
      <trkpt lat="46.08316" lon="6.72469">
        <ele>704</ele>
        <time>2023-08-13T10:28:47Z</time>
      </trkpt>
      <trkpt lat="46.08297" lon="6.7246">
        <ele>703.7</ele>
        <time>2023-08-13T10:28:57Z</time>
      </trkpt>
      <trkpt lat="46.08281" lon="6.72447">
        <ele>703.5</ele>
        <time>2023-08-13T10:29:08Z</time>
      </trkpt>
      <trkpt lat="46.08264" lon="6.72436">
        <ele>703.1</ele>
        <time>2023-08-13T10:29:18Z</time>
      </trkpt>
      <trkpt lat="46.08247" lon="6.72422">
        <ele>702.7</ele>
        <time>2023-08-13T10:29:29Z</time>
      </trkpt>
      <trkpt lat="46.0823" lon="6.72412">
        <ele>702.4</ele>
        <time>2023-08-13T10:29:40Z</time>
      </trkpt>
      <trkpt lat="46.08229" lon="6.72412">
        <ele>702.3</ele>
        <time>2023-08-13T10:29:41Z</time>
      </trkpt>
      <trkpt lat="46.08225" lon="6.72416">
        <ele>702.3</ele>
        <time>2023-08-13T10:29:46Z</time>
      </trkpt>
      <trkpt lat="46.08223" lon="6.72414">
        <ele>702.3</ele>
        <time>2023-08-13T10:29:48Z</time>
      </trkpt>
      <trkpt lat="46.08214" lon="6.72392">
        <ele>702</ele>
        <time>2023-08-13T10:29:56Z</time>
      </trkpt>
      <trkpt lat="46.08197" lon="6.72376">
        <ele>701.7</ele>
        <time>2023-08-13T10:30:03Z</time>
      </trkpt>
      <trkpt lat="46.0818" lon="6.72363">
        <ele>701.4</ele>
        <time>2023-08-13T10:30:11Z</time>
      </trkpt>
      <trkpt lat="46.08163" lon="6.72346">
        <ele>701.2</ele>
        <time>2023-08-13T10:30:18Z</time>
      </trkpt>
      <trkpt lat="46.08147" lon="6.72333">
        <ele>701</ele>
        <time>2023-08-13T10:30:24Z</time>
      </trkpt>
      <trkpt lat="46.08132" lon="6.72318">
        <ele>700.8</ele>
        <time>2023-08-13T10:30:30Z</time>
      </trkpt>
      <trkpt lat="46.08117" lon="6.72301">
        <ele>700.5</ele>
        <time>2023-08-13T10:30:37Z</time>
      </trkpt>
      <trkpt lat="46.081" lon="6.72287">
        <ele>700.4</ele>
        <time>2023-08-13T10:30:43Z</time>
      </trkpt>
      <trkpt lat="46.08082" lon="6.72274">
        <ele>700.3</ele>
        <time>2023-08-13T10:30:50Z</time>
      </trkpt>
      <trkpt lat="46.08066" lon="6.72262">
        <ele>700.1</ele>
        <time>2023-08-13T10:30:56Z</time>
      </trkpt>
      <trkpt lat="46.0805" lon="6.72247">
        <ele>699.9</ele>
        <time>2023-08-13T10:31:02Z</time>
      </trkpt>
      <trkpt lat="46.08034" lon="6.72233">
        <ele>699.8</ele>
        <time>2023-08-13T10:31:08Z</time>
      </trkpt>
      <trkpt lat="46.08018" lon="6.72219">
        <ele>699.7</ele>
        <time>2023-08-13T10:31:14Z</time>
      </trkpt>
      <trkpt lat="46.08002" lon="6.72205">
        <ele>699.6</ele>
        <time>2023-08-13T10:31:20Z</time>
      </trkpt>
      <trkpt lat="46.07985" lon="6.7219">
        <ele>699.5</ele>
        <time>2023-08-13T10:31:27Z</time>
      </trkpt>
      <trkpt lat="46.07967" lon="6.72173">
        <ele>699.5</ele>
        <time>2023-08-13T10:31:34Z</time>
      </trkpt>
      <trkpt lat="46.0795" lon="6.72158">
        <ele>699.6</ele>
        <time>2023-08-13T10:31:40Z</time>
      </trkpt>
      <trkpt lat="46.07933" lon="6.72144">
        <ele>699.6</ele>
        <time>2023-08-13T10:31:46Z</time>
      </trkpt>
      <trkpt lat="46.07918" lon="6.72128">
        <ele>699.5</ele>
        <time>2023-08-13T10:31:52Z</time>
      </trkpt>
      <trkpt lat="46.07903" lon="6.7211">
        <ele>699.5</ele>
        <time>2023-08-13T10:31:58Z</time>
      </trkpt>
      <trkpt lat="46.07889" lon="6.7209">
        <ele>699.5</ele>
        <time>2023-08-13T10:32:04Z</time>
      </trkpt>
      <trkpt lat="46.07874" lon="6.72074">
        <ele>699.5</ele>
        <time>2023-08-13T10:32:10Z</time>
      </trkpt>
      <trkpt lat="46.07858" lon="6.7206">
        <ele>699.5</ele>
        <time>2023-08-13T10:32:16Z</time>
      </trkpt>
      <trkpt lat="46.0784" lon="6.7205">
        <ele>699.4</ele>
        <time>2023-08-13T10:32:22Z</time>
      </trkpt>
      <trkpt lat="46.07825" lon="6.72035">
        <ele>699.4</ele>
        <time>2023-08-13T10:32:28Z</time>
      </trkpt>
      <trkpt lat="46.07808" lon="6.72019">
        <ele>699.4</ele>
        <time>2023-08-13T10:32:34Z</time>
      </trkpt>
      <trkpt lat="46.07792" lon="6.72003">
        <ele>699.4</ele>
        <time>2023-08-13T10:32:40Z</time>
      </trkpt>
      <trkpt lat="46.07775" lon="6.71988">
        <ele>699.4</ele>
        <time>2023-08-13T10:32:46Z</time>
      </trkpt>
      <trkpt lat="46.07757" lon="6.71975">
        <ele>699.6</ele>
        <time>2023-08-13T10:32:52Z</time>
      </trkpt>
      <trkpt lat="46.07742" lon="6.71962">
        <ele>699.7</ele>
        <time>2023-08-13T10:32:58Z</time>
      </trkpt>
      <trkpt lat="46.07727" lon="6.71944">
        <ele>699.7</ele>
        <time>2023-08-13T10:33:04Z</time>
      </trkpt>
      <trkpt lat="46.07717" lon="6.7192">
        <ele>699.4</ele>
        <time>2023-08-13T10:33:10Z</time>
      </trkpt>
      <trkpt lat="46.07721" lon="6.71891">
        <ele>697.8</ele>
        <time>2023-08-13T10:33:16Z</time>
      </trkpt>
      <trkpt lat="46.07724" lon="6.71865">
        <ele>697.1</ele>
        <time>2023-08-13T10:33:21Z</time>
      </trkpt>
      <trkpt lat="46.07717" lon="6.71839">
        <ele>697</ele>
        <time>2023-08-13T10:33:27Z</time>
      </trkpt>
      <trkpt lat="46.07707" lon="6.71816">
        <ele>697</ele>
        <time>2023-08-13T10:33:33Z</time>
      </trkpt>
      <trkpt lat="46.077" lon="6.7179">
        <ele>697.1</ele>
        <time>2023-08-13T10:33:39Z</time>
      </trkpt>
      <trkpt lat="46.07695" lon="6.71762">
        <ele>697.2</ele>
        <time>2023-08-13T10:33:46Z</time>
      </trkpt>
      <trkpt lat="46.07698" lon="6.71732">
        <ele>697.6</ele>
        <time>2023-08-13T10:33:53Z</time>
      </trkpt>
      <trkpt lat="46.07705" lon="6.71704">
        <ele>697.3</ele>
        <time>2023-08-13T10:33:59Z</time>
      </trkpt>
      <trkpt lat="46.07715" lon="6.71677">
        <ele>696.5</ele>
        <time>2023-08-13T10:34:05Z</time>
      </trkpt>
      <trkpt lat="46.07727" lon="6.71652">
        <ele>696.2</ele>
        <time>2023-08-13T10:34:11Z</time>
      </trkpt>
      <trkpt lat="46.07737" lon="6.71625">
        <ele>695</ele>
        <time>2023-08-13T10:34:18Z</time>
      </trkpt>
      <trkpt lat="46.07741" lon="6.71599">
        <ele>694.3</ele>
        <time>2023-08-13T10:34:24Z</time>
      </trkpt>
      <trkpt lat="46.07739" lon="6.71592">
        <ele>694.3</ele>
        <time>2023-08-13T10:34:27Z</time>
      </trkpt>
    </trkseg>
  </trk>
</gpx>